sensor_id;sensor_type;location;lat;lon;timestamp;P1;durP1;ratioP1;P2;durP2;ratioP2
21354;SDS011;10835;50.148;19.760;2023-11-19T00:02:03;11.77;;;5.93;;
21354;SDS011;10835;50.148;19.760;2023-11-19T00:04:36;11.57;;;6.28;;
21354;SDS011;10835;50.148;19.760;2023-11-19T00:07:07;15.35;;;5.82;;
21354;SDS011;10835;50.148;19.760;2023-11-19T00:09:37;12.18;;;6.00;;
21354;SDS011;10835;50.148;19.760;2023-11-19T00:12:06;10.27;;;5.55;;
21354;SDS011;10835;50.148;19.760;2023-11-19T00:14:35;10.98;;;5.68;;
21354;SDS011;10835;50.148;19.760;2023-11-19T00:17:03;12.73;;;5.60;;
21354;SDS011;10835;50.148;19.760;2023-11-19T00:19:32;12.93;;;5.90;;
21354;SDS011;10835;50.148;19.760;2023-11-19T00:22:00;14.40;;;6.57;;
21354;SDS011;10835;50.148;19.760;2023-11-19T00:24:31;10.65;;;5.18;;
21354;SDS011;10835;50.148;19.760;2023-11-19T00:27:03;12.57;;;5.32;;
21354;SDS011;10835;50.148;19.760;2023-11-19T00:29:34;8.52;;;4.90;;
21354;SDS011;10835;50.148;19.760;2023-11-19T00:32:03;12.63;;;6.13;;
21354;SDS011;10835;50.148;19.760;2023-11-19T00:34:34;11.93;;;5.57;;
21354;SDS011;10835;50.148;19.760;2023-11-19T00:37:02;11.93;;;5.57;;
21354;SDS011;10835;50.148;19.760;2023-11-19T00:39:33;14.20;;;6.05;;
21354;SDS011;10835;50.148;19.760;2023-11-19T00:42:01;11.85;;;5.47;;
21354;SDS011;10835;50.148;19.760;2023-11-19T00:44:30;11.82;;;5.00;;
21354;SDS011;10835;50.148;19.760;2023-11-19T00:46:59;9.80;;;4.55;;
21354;SDS011;10835;50.148;19.760;2023-11-19T00:49:28;9.55;;;4.53;;
21354;SDS011;10835;50.148;19.760;2023-11-19T00:51:57;9.65;;;4.82;;
21354;SDS011;10835;50.148;19.760;2023-11-19T00:54:28;10.07;;;5.22;;
21354;SDS011;10835;50.148;19.760;2023-11-19T00:56:58;9.10;;;4.38;;
21354;SDS011;10835;50.148;19.760;2023-11-19T00:59:28;12.25;;;5.43;;
21354;SDS011;10835;50.148;19.760;2023-11-19T01:01:56;13.10;;;5.22;;
21354;SDS011;10835;50.148;19.760;2023-11-19T01:04:26;9.20;;;5.28;;
21354;SDS011;10835;50.148;19.760;2023-11-19T01:06:54;12.75;;;5.07;;
21354;SDS011;10835;50.148;19.760;2023-11-19T01:09:23;10.18;;;4.25;;
21354;SDS011;10835;50.148;19.760;2023-11-19T01:11:53;13.77;;;5.55;;
21354;SDS011;10835;50.148;19.760;2023-11-19T01:14:23;11.40;;;4.63;;
21354;SDS011;10835;50.148;19.760;2023-11-19T01:16:52;9.95;;;4.93;;
21354;SDS011;10835;50.148;19.760;2023-11-19T01:19:21;12.90;;;4.63;;
21354;SDS011;10835;50.148;19.760;2023-11-19T01:21:51;11.32;;;5.63;;
21354;SDS011;10835;50.148;19.760;2023-11-19T01:24:20;11.57;;;5.30;;
21354;SDS011;10835;50.148;19.760;2023-11-19T01:26:49;13.02;;;5.80;;
21354;SDS011;10835;50.148;19.760;2023-11-19T01:29:18;9.93;;;5.00;;
21354;SDS011;10835;50.148;19.760;2023-11-19T01:31:48;8.48;;;5.15;;
21354;SDS011;10835;50.148;19.760;2023-11-19T01:34:18;10.30;;;4.97;;
21354;SDS011;10835;50.148;19.760;2023-11-19T01:36:47;10.90;;;5.07;;
21354;SDS011;10835;50.148;19.760;2023-11-19T01:39:16;13.18;;;5.50;;
21354;SDS011;10835;50.148;19.760;2023-11-19T01:41:46;9.13;;;4.55;;
21354;SDS011;10835;50.148;19.760;2023-11-19T01:44:15;12.60;;;5.70;;
21354;SDS011;10835;50.148;19.760;2023-11-19T01:46:45;13.07;;;5.85;;
21354;SDS011;10835;50.148;19.760;2023-11-19T01:49:17;15.30;;;6.70;;
21354;SDS011;10835;50.148;19.760;2023-11-19T01:51:47;13.32;;;6.75;;
21354;SDS011;10835;50.148;19.760;2023-11-19T01:54:16;16.30;;;6.88;;
21354;SDS011;10835;50.148;19.760;2023-11-19T01:56:45;11.18;;;6.53;;
21354;SDS011;10835;50.148;19.760;2023-11-19T01:59:13;13.77;;;7.15;;
21354;SDS011;10835;50.148;19.760;2023-11-19T02:01:43;14.93;;;7.32;;
21354;SDS011;10835;50.148;19.760;2023-11-19T02:04:13;12.07;;;6.13;;
21354;SDS011;10835;50.148;19.760;2023-11-19T02:06:44;12.23;;;6.00;;
21354;SDS011;10835;50.148;19.760;2023-11-19T02:09:14;13.80;;;6.57;;
21354;SDS011;10835;50.148;19.760;2023-11-19T02:11:46;9.98;;;5.35;;
21354;SDS011;10835;50.148;19.760;2023-11-19T02:14:17;11.85;;;5.90;;
21354;SDS011;10835;50.148;19.760;2023-11-19T02:16:46;15.73;;;6.55;;
21354;SDS011;10835;50.148;19.760;2023-11-19T02:19:15;14.40;;;6.65;;
21354;SDS011;10835;50.148;19.760;2023-11-19T02:21:48;15.95;;;7.30;;
21354;SDS011;10835;50.148;19.760;2023-11-19T02:24:16;16.23;;;6.72;;
21354;SDS011;10835;50.148;19.760;2023-11-19T02:26:51;10.85;;;5.85;;
21354;SDS011;10835;50.148;19.760;2023-11-19T02:29:28;10.13;;;5.25;;
21354;SDS011;10835;50.148;19.760;2023-11-19T02:31:56;11.18;;;5.78;;
21354;SDS011;10835;50.148;19.760;2023-11-19T02:34:25;14.50;;;5.63;;
21354;SDS011;10835;50.148;19.760;2023-11-19T02:36:54;11.35;;;6.35;;
21354;SDS011;10835;50.148;19.760;2023-11-19T02:39:23;14.48;;;5.75;;
21354;SDS011;10835;50.148;19.760;2023-11-19T02:41:51;11.35;;;5.18;;
21354;SDS011;10835;50.148;19.760;2023-11-19T02:44:19;11.57;;;5.53;;
21354;SDS011;10835;50.148;19.760;2023-11-19T02:46:49;9.05;;;4.70;;
21354;SDS011;10835;50.148;19.760;2023-11-19T02:49:18;10.95;;;5.40;;
21354;SDS011;10835;50.148;19.760;2023-11-19T02:51:47;15.15;;;5.95;;
21354;SDS011;10835;50.148;19.760;2023-11-19T02:54:16;13.27;;;6.22;;
21354;SDS011;10835;50.148;19.760;2023-11-19T02:56:44;10.98;;;5.28;;
21354;SDS011;10835;50.148;19.760;2023-11-19T02:59:15;9.60;;;5.20;;
21354;SDS011;10835;50.148;19.760;2023-11-19T03:01:55;17.70;;;5.97;;
21354;SDS011;10835;50.148;19.760;2023-11-19T03:04:26;13.80;;;5.10;;
21354;SDS011;10835;50.148;19.760;2023-11-19T03:06:55;12.02;;;4.70;;
21354;SDS011;10835;50.148;19.760;2023-11-19T03:09:24;12.98;;;5.93;;
21354;SDS011;10835;50.148;19.760;2023-11-19T03:11:53;13.95;;;5.50;;
21354;SDS011;10835;50.148;19.760;2023-11-19T03:14:21;15.85;;;5.63;;
21354;SDS011;10835;50.148;19.760;2023-11-19T03:16:51;9.05;;;5.35;;
21354;SDS011;10835;50.148;19.760;2023-11-19T03:19:21;9.70;;;4.80;;
21354;SDS011;10835;50.148;19.760;2023-11-19T03:21:52;14.38;;;6.55;;
21354;SDS011;10835;50.148;19.760;2023-11-19T03:24:20;14.10;;;5.90;;
21354;SDS011;10835;50.148;19.760;2023-11-19T03:26:49;11.75;;;6.40;;
21354;SDS011;10835;50.148;19.760;2023-11-19T03:29:18;11.98;;;5.65;;
21354;SDS011;10835;50.148;19.760;2023-11-19T03:31:46;11.73;;;6.00;;
21354;SDS011;10835;50.148;19.760;2023-11-19T03:34:14;15.27;;;6.68;;
21354;SDS011;10835;50.148;19.760;2023-11-19T03:36:45;13.05;;;5.93;;
21354;SDS011;10835;50.148;19.760;2023-11-19T03:39:13;12.85;;;5.50;;
21354;SDS011;10835;50.148;19.760;2023-11-19T03:41:41;14.23;;;6.45;;
21354;SDS011;10835;50.148;19.760;2023-11-19T03:44:14;12.65;;;6.35;;
21354;SDS011;10835;50.148;19.760;2023-11-19T03:46:43;15.70;;;6.10;;
21354;SDS011;10835;50.148;19.760;2023-11-19T03:49:12;15.68;;;6.32;;
21354;SDS011;10835;50.148;19.760;2023-11-19T03:51:40;14.15;;;5.88;;
21354;SDS011;10835;50.148;19.760;2023-11-19T03:54:10;12.43;;;6.75;;
21354;SDS011;10835;50.148;19.760;2023-11-19T03:56:39;16.95;;;6.72;;
21354;SDS011;10835;50.148;19.760;2023-11-19T03:59:07;13.98;;;6.07;;
21354;SDS011;10835;50.148;19.760;2023-11-19T04:01:36;13.20;;;6.03;;
21354;SDS011;10835;50.148;19.760;2023-11-19T04:04:05;15.68;;;5.95;;
21354;SDS011;10835;50.148;19.760;2023-11-19T04:06:33;12.80;;;5.93;;
21354;SDS011;10835;50.148;19.760;2023-11-19T04:09:02;12.73;;;6.18;;
21354;SDS011;10835;50.148;19.760;2023-11-19T04:11:32;14.25;;;6.00;;
21354;SDS011;10835;50.148;19.760;2023-11-19T04:14:00;11.82;;;6.50;;
21354;SDS011;10835;50.148;19.760;2023-11-19T04:16:29;18.00;;;6.18;;
21354;SDS011;10835;50.148;19.760;2023-11-19T04:18:57;15.45;;;6.63;;
21354;SDS011;10835;50.148;19.760;2023-11-19T04:21:26;17.15;;;6.63;;
21354;SDS011;10835;50.148;19.760;2023-11-19T04:23:54;11.68;;;6.40;;
21354;SDS011;10835;50.148;19.760;2023-11-19T04:26:23;15.93;;;6.70;;
21354;SDS011;10835;50.148;19.760;2023-11-19T04:28:53;11.73;;;6.53;;
21354;SDS011;10835;50.148;19.760;2023-11-19T04:31:21;13.45;;;7.10;;
21354;SDS011;10835;50.148;19.760;2023-11-19T04:33:53;17.38;;;8.05;;
21354;SDS011;10835;50.148;19.760;2023-11-19T04:36:21;14.05;;;7.57;;
21354;SDS011;10835;50.148;19.760;2023-11-19T04:38:51;14.18;;;7.35;;
21354;SDS011;10835;50.148;19.760;2023-11-19T04:41:19;18.75;;;7.30;;
21354;SDS011;10835;50.148;19.760;2023-11-19T04:43:48;15.13;;;6.93;;
21354;SDS011;10835;50.148;19.760;2023-11-19T04:46:18;15.43;;;6.63;;
21354;SDS011;10835;50.148;19.760;2023-11-19T04:48:46;14.93;;;7.15;;
21354;SDS011;10835;50.148;19.760;2023-11-19T04:51:15;17.02;;;7.03;;
21354;SDS011;10835;50.148;19.760;2023-11-19T04:53:44;14.43;;;7.25;;
21354;SDS011;10835;50.148;19.760;2023-11-19T04:56:12;14.52;;;7.10;;
21354;SDS011;10835;50.148;19.760;2023-11-19T04:58:42;18.65;;;7.85;;
21354;SDS011;10835;50.148;19.760;2023-11-19T05:01:13;16.88;;;7.78;;
21354;SDS011;10835;50.148;19.760;2023-11-19T05:03:45;12.82;;;6.63;;
21354;SDS011;10835;50.148;19.760;2023-11-19T05:06:13;16.33;;;8.85;;
21354;SDS011;10835;50.148;19.760;2023-11-19T05:08:42;16.73;;;7.40;;
21354;SDS011;10835;50.148;19.760;2023-11-19T05:11:10;17.77;;;7.38;;
21354;SDS011;10835;50.148;19.760;2023-11-19T05:13:44;18.42;;;8.02;;
21354;SDS011;10835;50.148;19.760;2023-11-19T05:16:13;16.67;;;7.35;;
21354;SDS011;10835;50.148;19.760;2023-11-19T05:18:42;15.95;;;7.38;;
21354;SDS011;10835;50.148;19.760;2023-11-19T05:21:12;15.63;;;6.95;;
21354;SDS011;10835;50.148;19.760;2023-11-19T05:23:41;18.45;;;8.32;;
21354;SDS011;10835;50.148;19.760;2023-11-19T05:26:09;13.68;;;6.65;;
21354;SDS011;10835;50.148;19.760;2023-11-19T05:28:44;16.17;;;7.15;;
21354;SDS011;10835;50.148;19.760;2023-11-19T05:31:13;14.68;;;7.63;;
21354;SDS011;10835;50.148;19.760;2023-11-19T05:33:42;17.73;;;7.75;;
21354;SDS011;10835;50.148;19.760;2023-11-19T05:36:12;16.52;;;7.10;;
21354;SDS011;10835;50.148;19.760;2023-11-19T05:38:41;13.23;;;7.30;;
21354;SDS011;10835;50.148;19.760;2023-11-19T05:41:13;14.90;;;6.63;;
21354;SDS011;10835;50.148;19.760;2023-11-19T05:43:42;13.85;;;6.85;;
21354;SDS011;10835;50.148;19.760;2023-11-19T05:46:10;16.45;;;7.47;;
21354;SDS011;10835;50.148;19.760;2023-11-19T05:48:43;16.77;;;7.75;;
21354;SDS011;10835;50.148;19.760;2023-11-19T05:51:14;16.17;;;7.60;;
21354;SDS011;10835;50.148;19.760;2023-11-19T05:53:43;18.77;;;8.00;;
21354;SDS011;10835;50.148;19.760;2023-11-19T05:56:12;18.85;;;7.65;;
21354;SDS011;10835;50.148;19.760;2023-11-19T05:58:42;16.75;;;8.48;;
21354;SDS011;10835;50.148;19.760;2023-11-19T06:01:12;24.00;;;10.07;;
21354;SDS011;10835;50.148;19.760;2023-11-19T06:03:41;18.30;;;7.38;;
21354;SDS011;10835;50.148;19.760;2023-11-19T06:06:15;20.88;;;7.85;;
21354;SDS011;10835;50.148;19.760;2023-11-19T06:08:44;16.35;;;7.55;;
21354;SDS011;10835;50.148;19.760;2023-11-19T06:11:13;16.30;;;8.55;;
21354;SDS011;10835;50.148;19.760;2023-11-19T06:13:45;15.95;;;7.75;;
21354;SDS011;10835;50.148;19.760;2023-11-19T06:16:14;16.10;;;7.75;;
21354;SDS011;10835;50.148;19.760;2023-11-19T06:18:43;21.02;;;7.97;;
21354;SDS011;10835;50.148;19.760;2023-11-19T06:21:12;21.77;;;8.40;;
21354;SDS011;10835;50.148;19.760;2023-11-19T06:23:42;19.08;;;7.55;;
21354;SDS011;10835;50.148;19.760;2023-11-19T06:26:10;20.00;;;8.35;;
21354;SDS011;10835;50.148;19.760;2023-11-19T06:28:40;17.50;;;6.72;;
21354;SDS011;10835;50.148;19.760;2023-11-19T06:31:09;17.77;;;8.30;;
21354;SDS011;10835;50.148;19.760;2023-11-19T06:33:38;20.63;;;8.63;;
21354;SDS011;10835;50.148;19.760;2023-11-19T06:36:07;18.17;;;8.32;;
21354;SDS011;10835;50.148;19.760;2023-11-19T06:38:36;20.88;;;8.65;;
21354;SDS011;10835;50.148;19.760;2023-11-19T06:41:08;17.08;;;7.78;;
21354;SDS011;10835;50.148;19.760;2023-11-19T06:43:37;15.50;;;7.65;;
21354;SDS011;10835;50.148;19.760;2023-11-19T06:46:14;17.10;;;7.85;;
21354;SDS011;10835;50.148;19.760;2023-11-19T06:48:43;17.48;;;7.60;;
21354;SDS011;10835;50.148;19.760;2023-11-19T06:51:11;13.68;;;6.35;;
21354;SDS011;10835;50.148;19.760;2023-11-19T06:53:42;19.00;;;8.13;;
21354;SDS011;10835;50.148;19.760;2023-11-19T06:56:21;16.13;;;8.27;;
21354;SDS011;10835;50.148;19.760;2023-11-19T06:58:51;18.80;;;7.97;;
21354;SDS011;10835;50.148;19.760;2023-11-19T07:01:20;18.13;;;8.32;;
21354;SDS011;10835;50.148;19.760;2023-11-19T07:03:48;16.15;;;7.70;;
21354;SDS011;10835;50.148;19.760;2023-11-19T07:06:18;18.08;;;8.43;;
21354;SDS011;10835;50.148;19.760;2023-11-19T07:08:59;15.85;;;7.85;;
21354;SDS011;10835;50.148;19.760;2023-11-19T07:11:37;15.52;;;7.85;;
21354;SDS011;10835;50.148;19.760;2023-11-19T07:14:06;16.85;;;8.45;;
21354;SDS011;10835;50.148;19.760;2023-11-19T07:16:36;21.38;;;9.15;;
21354;SDS011;10835;50.148;19.760;2023-11-19T07:19:05;19.83;;;8.10;;
21354;SDS011;10835;50.148;19.760;2023-11-19T07:21:34;16.98;;;7.68;;
21354;SDS011;10835;50.148;19.760;2023-11-19T07:24:06;18.70;;;8.95;;
21354;SDS011;10835;50.148;19.760;2023-11-19T07:26:39;21.17;;;9.18;;
21354;SDS011;10835;50.148;19.760;2023-11-19T07:29:10;22.25;;;8.75;;
21354;SDS011;10835;50.148;19.760;2023-11-19T07:31:38;21.73;;;9.23;;
21354;SDS011;10835;50.148;19.760;2023-11-19T07:34:07;17.90;;;7.72;;
21354;SDS011;10835;50.148;19.760;2023-11-19T07:36:37;21.17;;;9.15;;
21354;SDS011;10835;50.148;19.760;2023-11-19T07:39:05;20.27;;;8.35;;
21354;SDS011;10835;50.148;19.760;2023-11-19T07:41:36;20.27;;;8.52;;
21354;SDS011;10835;50.148;19.760;2023-11-19T07:44:05;19.17;;;8.55;;
21354;SDS011;10835;50.148;19.760;2023-11-19T07:46:34;24.17;;;8.52;;
21354;SDS011;10835;50.148;19.760;2023-11-19T07:49:02;19.27;;;8.77;;
21354;SDS011;10835;50.148;19.760;2023-11-19T07:51:31;21.65;;;9.25;;
21354;SDS011;10835;50.148;19.760;2023-11-19T07:53:59;22.58;;;8.73;;
21354;SDS011;10835;50.148;19.760;2023-11-19T07:56:28;21.15;;;8.98;;
21354;SDS011;10835;50.148;19.760;2023-11-19T07:58:58;17.90;;;7.78;;
21354;SDS011;10835;50.148;19.760;2023-11-19T08:01:26;21.75;;;9.75;;
21354;SDS011;10835;50.148;19.760;2023-11-19T08:03:55;18.83;;;8.73;;
21354;SDS011;10835;50.148;19.760;2023-11-19T08:06:25;19.27;;;8.20;;
21354;SDS011;10835;50.148;19.760;2023-11-19T08:08:54;17.58;;;8.15;;
21354;SDS011;10835;50.148;19.760;2023-11-19T08:11:23;17.25;;;7.75;;
21354;SDS011;10835;50.148;19.760;2023-11-19T08:13:51;24.27;;;9.73;;
21354;SDS011;10835;50.148;19.760;2023-11-19T08:16:21;18.35;;;8.70;;
21354;SDS011;10835;50.148;19.760;2023-11-19T08:18:49;20.02;;;8.77;;
21354;SDS011;10835;50.148;19.760;2023-11-19T08:21:18;21.20;;;8.57;;
21354;SDS011;10835;50.148;19.760;2023-11-19T08:23:47;20.35;;;8.52;;
21354;SDS011;10835;50.148;19.760;2023-11-19T08:26:16;23.05;;;8.90;;
21354;SDS011;10835;50.148;19.760;2023-11-19T08:28:48;19.08;;;8.30;;
21354;SDS011;10835;50.148;19.760;2023-11-19T08:31:16;18.85;;;8.43;;
21354;SDS011;10835;50.148;19.760;2023-11-19T08:33:46;17.40;;;7.88;;
21354;SDS011;10835;50.148;19.760;2023-11-19T08:36:15;15.50;;;7.28;;
21354;SDS011;10835;50.148;19.760;2023-11-19T08:38:45;19.25;;;8.45;;
21354;SDS011;10835;50.148;19.760;2023-11-19T08:41:15;19.85;;;8.20;;
21354;SDS011;10835;50.148;19.760;2023-11-19T08:43:45;16.88;;;7.68;;
21354;SDS011;10835;50.148;19.760;2023-11-19T08:46:13;15.55;;;7.90;;
21354;SDS011;10835;50.148;19.760;2023-11-19T08:48:42;22.42;;;8.52;;
21354;SDS011;10835;50.148;19.760;2023-11-19T08:51:12;15.40;;;7.32;;
21354;SDS011;10835;50.148;19.760;2023-11-19T08:53:40;17.33;;;7.50;;
21354;SDS011;10835;50.148;19.760;2023-11-19T08:56:09;14.50;;;7.07;;
21354;SDS011;10835;50.148;19.760;2023-11-19T08:58:37;16.13;;;7.70;;
21354;SDS011;10835;50.148;19.760;2023-11-19T09:01:06;15.52;;;7.35;;
21354;SDS011;10835;50.148;19.760;2023-11-19T09:03:36;16.25;;;7.68;;
21354;SDS011;10835;50.148;19.760;2023-11-19T09:06:07;14.90;;;6.72;;
21354;SDS011;10835;50.148;19.760;2023-11-19T09:08:37;15.52;;;6.53;;
21354;SDS011;10835;50.148;19.760;2023-11-19T09:11:06;14.88;;;6.80;;
21354;SDS011;10835;50.148;19.760;2023-11-19T09:13:36;13.35;;;6.38;;
21354;SDS011;10835;50.148;19.760;2023-11-19T09:16:11;11.32;;;6.30;;
21354;SDS011;10835;50.148;19.760;2023-11-19T09:18:40;15.90;;;6.47;;
21354;SDS011;10835;50.148;19.760;2023-11-19T09:21:10;11.35;;;5.90;;
21354;SDS011;10835;50.148;19.760;2023-11-19T09:23:40;13.60;;;6.18;;
21354;SDS011;10835;50.148;19.760;2023-11-19T09:26:08;14.02;;;6.10;;
21354;SDS011;10835;50.148;19.760;2023-11-19T09:28:37;15.52;;;6.57;;
21354;SDS011;10835;50.148;19.760;2023-11-19T09:31:13;11.73;;;6.00;;
21354;SDS011;10835;50.148;19.760;2023-11-19T09:33:45;14.43;;;6.50;;
21354;SDS011;10835;50.148;19.760;2023-11-19T09:36:13;13.98;;;6.22;;
21354;SDS011;10835;50.148;19.760;2023-11-19T09:38:47;12.05;;;5.47;;
21354;SDS011;10835;50.148;19.760;2023-11-19T09:41:15;11.82;;;5.55;;
21354;SDS011;10835;50.148;19.760;2023-11-19T09:43:46;13.20;;;6.60;;
21354;SDS011;10835;50.148;19.760;2023-11-19T09:46:15;9.73;;;5.38;;
21354;SDS011;10835;50.148;19.760;2023-11-19T09:48:44;11.48;;;5.53;;
21354;SDS011;10835;50.148;19.760;2023-11-19T09:51:14;10.00;;;5.22;;
21354;SDS011;10835;50.148;19.760;2023-11-19T09:53:45;10.32;;;5.07;;
21354;SDS011;10835;50.148;19.760;2023-11-19T09:56:13;10.70;;;4.78;;
21354;SDS011;10835;50.148;19.760;2023-11-19T09:58:43;9.60;;;5.25;;
21354;SDS011;10835;50.148;19.760;2023-11-19T10:01:12;13.13;;;5.60;;
21354;SDS011;10835;50.148;19.760;2023-11-19T10:03:43;14.57;;;6.43;;
21354;SDS011;10835;50.148;19.760;2023-11-19T10:06:15;12.20;;;5.90;;
21354;SDS011;10835;50.148;19.760;2023-11-19T10:08:47;9.35;;;4.70;;
21354;SDS011;10835;50.148;19.760;2023-11-19T10:11:15;11.00;;;5.80;;
21354;SDS011;10835;50.148;19.760;2023-11-19T10:13:45;11.02;;;5.38;;
21354;SDS011;10835;50.148;19.760;2023-11-19T10:16:15;12.85;;;5.95;;
21354;SDS011;10835;50.148;19.760;2023-11-19T10:18:45;9.40;;;4.75;;
21354;SDS011;10835;50.148;19.760;2023-11-19T10:21:14;11.02;;;5.40;;
21354;SDS011;10835;50.148;19.760;2023-11-19T10:23:50;12.13;;;5.43;;
21354;SDS011;10835;50.148;19.760;2023-11-19T10:26:29;11.00;;;5.28;;
21354;SDS011;10835;50.148;19.760;2023-11-19T10:28:57;9.93;;;5.57;;
21354;SDS011;10835;50.148;19.760;2023-11-19T10:31:26;10.75;;;5.68;;
21354;SDS011;10835;50.148;19.760;2023-11-19T10:33:55;10.77;;;5.30;;
21354;SDS011;10835;50.148;19.760;2023-11-19T10:36:26;8.65;;;4.72;;
21354;SDS011;10835;50.148;19.760;2023-11-19T10:39:09;10.30;;;4.72;;
21354;SDS011;10835;50.148;19.760;2023-11-19T10:41:38;14.40;;;7.43;;
21354;SDS011;10835;50.148;19.760;2023-11-19T10:44:06;20.92;;;9.20;;
21354;SDS011;10835;50.148;19.760;2023-11-19T10:46:36;19.75;;;9.15;;
21354;SDS011;10835;50.148;19.760;2023-11-19T10:49:06;10.48;;;5.32;;
21354;SDS011;10835;50.148;19.760;2023-11-19T10:51:34;10.10;;;4.85;;
21354;SDS011;10835;50.148;19.760;2023-11-19T10:54:03;9.25;;;4.28;;
21354;SDS011;10835;50.148;19.760;2023-11-19T10:56:34;9.60;;;5.03;;
21354;SDS011;10835;50.148;19.760;2023-11-19T10:59:03;10.35;;;4.63;;
21354;SDS011;10835;50.148;19.760;2023-11-19T11:01:38;16.23;;;6.93;;
21354;SDS011;10835;50.148;19.760;2023-11-19T11:04:11;14.30;;;5.82;;
21354;SDS011;10835;50.148;19.760;2023-11-19T11:06:43;10.57;;;5.10;;
21354;SDS011;10835;50.148;19.760;2023-11-19T11:09:13;13.70;;;6.55;;
21354;SDS011;10835;50.148;19.760;2023-11-19T11:11:43;15.05;;;5.80;;
21354;SDS011;10835;50.148;19.760;2023-11-19T11:14:15;10.63;;;5.20;;
21354;SDS011;10835;50.148;19.760;2023-11-19T11:16:46;11.30;;;5.07;;
21354;SDS011;10835;50.148;19.760;2023-11-19T11:19:17;10.43;;;4.95;;
21354;SDS011;10835;50.148;19.760;2023-11-19T11:21:47;12.23;;;5.35;;
21354;SDS011;10835;50.148;19.760;2023-11-19T11:24:28;11.07;;;4.68;;
21354;SDS011;10835;50.148;19.760;2023-11-19T11:30:28;10.20;;;5.30;;
21354;SDS011;10835;50.148;19.760;2023-11-19T11:33:06;9.35;;;5.03;;
21354;SDS011;10835;50.148;19.760;2023-11-19T11:35:50;10.20;;;5.30;;
21354;SDS011;10835;50.148;19.760;2023-11-19T11:38:28;10.82;;;4.90;;
21354;SDS011;10835;50.148;19.760;2023-11-19T11:41:20;11.05;;;5.05;;
21354;SDS011;10835;50.148;19.760;2023-11-19T11:43:56;8.82;;;4.68;;
21354;SDS011;10835;50.148;19.760;2023-11-19T11:49:27;8.15;;;4.68;;
21354;SDS011;10835;50.148;19.760;2023-11-19T11:52:03;8.13;;;4.78;;
21354;SDS011;10835;50.148;19.760;2023-11-19T11:54:32;12.02;;;5.38;;
21354;SDS011;10835;50.148;19.760;2023-11-19T11:57:06;11.05;;;4.70;;
21354;SDS011;10835;50.148;19.760;2023-11-19T11:59:44;5.43;;;3.20;;
21354;SDS011;10835;50.148;19.760;2023-11-19T12:02:14;10.43;;;4.78;;
21354;SDS011;10835;50.148;19.760;2023-11-19T12:04:47;6.45;;;4.25;;
21354;SDS011;10835;50.148;19.760;2023-11-19T12:07:20;8.85;;;4.75;;
21354;SDS011;10835;50.148;19.760;2023-11-19T12:09:51;8.45;;;4.28;;
21354;SDS011;10835;50.148;19.760;2023-11-19T12:12:23;9.40;;;3.92;;
21354;SDS011;10835;50.148;19.760;2023-11-19T12:15:05;12.27;;;4.93;;
21354;SDS011;10835;50.148;19.760;2023-11-19T12:17:41;8.25;;;4.45;;
21354;SDS011;10835;50.148;19.760;2023-11-19T12:20:17;8.20;;;4.55;;
21354;SDS011;10835;50.148;19.760;2023-11-19T12:22:49;10.15;;;4.75;;
21354;SDS011;10835;50.148;19.760;2023-11-19T12:25:18;11.45;;;5.90;;
21354;SDS011;10835;50.148;19.760;2023-11-19T12:27:49;11.60;;;5.28;;
21354;SDS011;10835;50.148;19.760;2023-11-19T12:30:23;9.38;;;4.93;;
21354;SDS011;10835;50.148;19.760;2023-11-19T12:32:53;12.48;;;6.00;;
21354;SDS011;10835;50.148;19.760;2023-11-19T12:35:22;9.45;;;4.80;;
21354;SDS011;10835;50.148;19.760;2023-11-19T12:37:52;13.60;;;6.97;;
21354;SDS011;10835;50.148;19.760;2023-11-19T12:40:21;15.65;;;6.65;;
21354;SDS011;10835;50.148;19.760;2023-11-19T12:42:50;13.30;;;6.65;;
21354;SDS011;10835;50.148;19.760;2023-11-19T12:45:20;9.50;;;5.32;;
21354;SDS011;10835;50.148;19.760;2023-11-19T12:48:03;19.55;;;7.35;;
21354;SDS011;10835;50.148;19.760;2023-11-19T12:53:20;14.07;;;6.45;;
21354;SDS011;10835;50.148;19.760;2023-11-19T12:55:49;12.98;;;7.38;;
21354;SDS011;10835;50.148;19.760;2023-11-19T12:58:30;25.80;;;12.02;;
21354;SDS011;10835;50.148;19.760;2023-11-19T13:01:01;18.83;;;9.70;;
21354;SDS011;10835;50.148;19.760;2023-11-19T13:03:30;15.20;;;7.38;;
21354;SDS011;10835;50.148;19.760;2023-11-19T13:06:03;12.93;;;6.13;;
21354;SDS011;10835;50.148;19.760;2023-11-19T13:08:38;12.30;;;4.53;;
21354;SDS011;10835;50.148;19.760;2023-11-19T13:11:07;7.70;;;4.22;;
21354;SDS011;10835;50.148;19.760;2023-11-19T13:13:55;9.32;;;4.97;;
21354;SDS011;10835;50.148;19.760;2023-11-19T13:16:26;8.85;;;4.70;;
21354;SDS011;10835;50.148;19.760;2023-11-19T13:18:56;11.82;;;4.95;;
21354;SDS011;10835;50.148;19.760;2023-11-19T13:21:25;10.30;;;5.95;;
21354;SDS011;10835;50.148;19.760;2023-11-19T13:23:54;11.18;;;6.05;;
21354;SDS011;10835;50.148;19.760;2023-11-19T13:26:23;7.93;;;4.85;;
21354;SDS011;10835;50.148;19.760;2023-11-19T13:28:51;12.10;;;6.40;;
21354;SDS011;10835;50.148;19.760;2023-11-19T13:31:20;10.93;;;5.60;;
21354;SDS011;10835;50.148;19.760;2023-11-19T13:33:51;9.05;;;5.30;;
21354;SDS011;10835;50.148;19.760;2023-11-19T13:36:19;10.02;;;5.10;;
21354;SDS011;10835;50.148;19.760;2023-11-19T13:38:48;9.77;;;5.00;;
21354;SDS011;10835;50.148;19.760;2023-11-19T13:41:17;10.10;;;5.70;;
21354;SDS011;10835;50.148;19.760;2023-11-19T13:43:45;10.57;;;5.00;;
21354;SDS011;10835;50.148;19.760;2023-11-19T13:46:14;10.88;;;5.50;;
21354;SDS011;10835;50.148;19.760;2023-11-19T13:48:42;13.40;;;5.22;;
21354;SDS011;10835;50.148;19.760;2023-11-19T13:51:13;13.85;;;5.85;;
21354;SDS011;10835;50.148;19.760;2023-11-19T13:53:41;11.07;;;5.80;;
21354;SDS011;10835;50.148;19.760;2023-11-19T13:56:13;13.30;;;6.25;;
21354;SDS011;10835;50.148;19.760;2023-11-19T13:58:42;16.23;;;6.38;;
21354;SDS011;10835;50.148;19.760;2023-11-19T14:01:10;11.68;;;5.85;;
21354;SDS011;10835;50.148;19.760;2023-11-19T14:03:42;9.88;;;5.35;;
21354;SDS011;10835;50.148;19.760;2023-11-19T14:06:11;15.27;;;6.35;;
21354;SDS011;10835;50.148;19.760;2023-11-19T14:08:41;16.02;;;7.75;;
21354;SDS011;10835;50.148;19.760;2023-11-19T14:11:09;21.67;;;9.02;;
21354;SDS011;10835;50.148;19.760;2023-11-19T14:13:41;20.67;;;8.20;;
21354;SDS011;10835;50.148;19.760;2023-11-19T14:16:09;21.15;;;8.32;;
21354;SDS011;10835;50.148;19.760;2023-11-19T14:18:39;13.60;;;6.80;;
21354;SDS011;10835;50.148;19.760;2023-11-19T14:21:08;19.40;;;8.43;;
21354;SDS011;10835;50.148;19.760;2023-11-19T14:23:38;20.90;;;8.63;;
21354;SDS011;10835;50.148;19.760;2023-11-19T14:26:06;29.33;;;12.82;;
21354;SDS011;10835;50.148;19.760;2023-11-19T14:28:34;33.15;;;14.60;;
21354;SDS011;10835;50.148;19.760;2023-11-19T14:31:21;31.40;;;13.02;;
21354;SDS011;10835;50.148;19.760;2023-11-19T14:33:50;31.67;;;15.32;;
21354;SDS011;10835;50.148;19.760;2023-11-19T14:36:20;29.50;;;13.13;;
21354;SDS011;10835;50.148;19.760;2023-11-19T14:38:50;22.73;;;12.80;;
21354;SDS011;10835;50.148;19.760;2023-11-19T14:41:19;23.92;;;13.13;;
21354;SDS011;10835;50.148;19.760;2023-11-19T14:43:47;26.02;;;13.30;;
21354;SDS011;10835;50.148;19.760;2023-11-19T14:46:16;22.17;;;11.45;;
21354;SDS011;10835;50.148;19.760;2023-11-19T14:48:45;21.23;;;10.15;;
21354;SDS011;10835;50.148;19.760;2023-11-19T14:51:14;22.67;;;11.07;;